KTEX

Telluride Regional Airport

Telluride, Colorado, USA
KTEX 261120Z 2612/2712 14006KT P6SM SKC FM261400 35005KT P6SM SKC FM261800 34009KT P6SM SKC FM270200 05005KT P6SM SKC FM270400 12005KT P6SM SKC
Issued Valid From Valid To
Apr-26 @ 11:20 UTC
(2 hours ago)
Apr-26 @ 12:00 UTC
(2 hours ago)
Apr-27 @ 12:00 UTC
(in 22 hours)
Apr-26 @ 12:00 to Apr-26 @ 14:00
KTEX 261120Z 2612/2712 14006KT P6SM SKC
Wind Visibility Clouds
140° at 6 knots Greater than 6 miles
  • Clear skies
From Apr-26 @ 14:00 to Apr-26 @ 18:00
FM261400 35005KT P6SM SKC
Wind Visibility Clouds
350° at 5 knots Greater than 6 miles
  • Clear skies
From Apr-26 @ 18:00 to Apr-27 @ 02:00
FM261800 34009KT P6SM SKC
Wind Visibility Clouds
340° at 9 knots Greater than 6 miles
  • Clear skies
From Apr-27 @ 02:00 to Apr-27 @ 04:00
FM270200 05005KT P6SM SKC
Wind Visibility Clouds
50° at 5 knots Greater than 6 miles
  • Clear skies
From Apr-27 @ 04:00 to Apr-27 @ 12:00
FM270400 12005KT P6SM SKC
Wind Visibility Clouds
120° at 5 knots Greater than 6 miles
  • Clear skies
KTEX 261120Z 2612/2712 14006KT P6SM SKC FM261400 35005KT P6SM SKC FM261800 34009KT P6SM SKC FM270200 05005KT P6SM SKC FM270400 12005KT P6SM SKC
Issued Apr-26 @ 11:20 UTC
(2 hours ago)
Valid From Apr-26 @ 12:00 UTC
(2 hours ago)
Valid To Apr-27 @ 12:00 UTC
(in 22 hours)
Apr-26 @ 12:00 - Apr-26 @ 14:00
Wind Visibility
140° at 6 knots Greater than 6 miles
Clouds
  • Clear skies
From Apr-26 @ 14:00 - Apr-26 @ 18:00
Wind Visibility
350° at 5 knots Greater than 6 miles
Clouds
  • Clear skies
From Apr-26 @ 18:00 - Apr-27 @ 02:00
Wind Visibility
340° at 9 knots Greater than 6 miles
Clouds
  • Clear skies
From Apr-27 @ 02:00 - Apr-27 @ 04:00
Wind Visibility
50° at 5 knots Greater than 6 miles
Clouds
  • Clear skies
From Apr-27 @ 04:00 - Apr-27 @ 12:00
Wind Visibility
120° at 5 knots Greater than 6 miles
Clouds
  • Clear skies